createdAt,value
2022-07-26T00:00:20.751Z,21.91
2022-07-26T00:01:20.869Z,21.91
2022-07-26T00:02:20.845Z,21.91
2022-07-26T00:03:20.843Z,21.94
2022-07-26T00:04:20.873Z,21.82
2022-07-26T00:05:20.906Z,21.91
2022-07-26T00:06:20.929Z,21.92
2022-07-26T00:07:20.960Z,21.90
2022-07-26T00:08:20.992Z,21.92
2022-07-26T00:09:21.017Z,22.00
2022-07-26T00:10:21.043Z,21.91
2022-07-26T00:11:21.078Z,21.88
2022-07-26T00:12:21.108Z,21.83
2022-07-26T00:13:21.138Z,21.75
2022-07-26T00:14:21.163Z,21.82
2022-07-26T00:15:21.192Z,21.71
2022-07-26T00:16:21.280Z,21.80
2022-07-26T00:17:21.255Z,21.80
2022-07-26T00:18:21.280Z,21.77
2022-07-26T00:19:21.324Z,21.82
2022-07-26T00:20:21.341Z,21.79
2022-07-26T00:21:21.369Z,21.90
2022-07-26T00:22:21.410Z,21.83
2022-07-26T00:23:21.424Z,21.88
2022-07-26T00:24:21.456Z,21.77
2022-07-26T00:25:21.496Z,21.79
2022-07-26T00:26:21.516Z,21.84
2022-07-26T00:27:21.545Z,21.75
2022-07-26T00:28:21.572Z,21.82
2022-07-26T00:29:21.607Z,21.79
2022-07-26T00:30:21.632Z,21.75
2022-07-26T00:31:21.694Z,21.71
2022-07-26T00:32:21.687Z,21.79
2022-07-26T00:33:21.720Z,21.74
2022-07-26T00:34:21.749Z,21.75
2022-07-26T00:35:21.778Z,21.80
2022-07-26T00:36:21.807Z,21.80
2022-07-26T00:37:21.838Z,21.79
2022-07-26T00:38:21.866Z,21.77
2022-07-26T00:39:21.895Z,21.79
2022-07-26T00:40:21.923Z,21.82
2022-07-26T00:41:21.950Z,21.80
2022-07-26T00:42:21.983Z,21.74
2022-07-26T00:43:22.010Z,21.64
2022-07-26T00:44:22.039Z,21.67
2022-07-26T00:45:22.068Z,21.77
2022-07-26T00:46:22.179Z,21.65
2022-07-26T00:47:22.126Z,21.69
2022-07-26T00:48:22.159Z,21.68
2022-07-26T00:49:22.238Z,21.65
2022-07-26T00:50:22.239Z,21.61
2022-07-26T00:51:22.244Z,21.59
2022-07-26T00:52:22.278Z,21.53
2022-07-26T00:53:22.305Z,21.50
2022-07-26T00:54:22.332Z,21.61
2022-07-26T00:55:22.359Z,21.59
2022-07-26T00:56:22.391Z,21.47
2022-07-26T00:57:22.421Z,21.53
2022-07-26T00:58:22.450Z,21.52
2022-07-26T00:59:22.481Z,21.46
2022-07-26T01:00:22.526Z,21.50
2022-07-26T01:01:22.579Z,21.35
2022-07-26T01:02:22.593Z,21.44
2022-07-26T01:03:22.593Z,21.37
2022-07-26T01:04:22.623Z,21.31
2022-07-26T01:05:22.658Z,21.27
2022-07-26T01:06:26.953Z,21.25
2022-07-26T01:07:22.710Z,21.27
2022-07-26T01:08:22.741Z,21.25
2022-07-26T01:09:22.769Z,21.29
2022-07-26T01:10:22.805Z,21.32
2022-07-26T01:11:22.829Z,21.32
2022-07-26T01:12:22.856Z,21.31
2022-07-26T01:13:22.887Z,21.31
2022-07-26T01:14:22.914Z,21.29
2022-07-26T01:15:22.975Z,21.31
2022-07-26T01:16:23.037Z,21.29
2022-07-26T01:17:23.002Z,21.32
2022-07-26T01:18:23.049Z,21.25
2022-07-26T01:19:23.059Z,21.31
2022-07-26T01:20:23.090Z,21.34
2022-07-26T01:21:23.115Z,21.27
2022-07-26T01:22:23.146Z,21.29
2022-07-26T01:23:23.176Z,21.22
2022-07-26T01:24:23.202Z,21.24
2022-07-26T01:25:23.233Z,21.17
2022-07-26T01:26:23.263Z,21.14
2022-07-26T01:27:23.291Z,21.12
2022-07-26T01:28:23.320Z,21.17
2022-07-26T01:29:23.349Z,21.16
2022-07-26T01:30:23.377Z,21.17
2022-07-26T01:31:23.525Z,21.10
2022-07-26T01:32:23.433Z,21.07
2022-07-26T01:33:23.469Z,21.03
2022-07-26T01:34:23.494Z,20.98
2022-07-26T01:35:23.522Z,20.98
2022-07-26T01:36:23.547Z,20.99
2022-07-26T01:37:23.577Z,20.91
2022-07-26T01:38:23.607Z,20.91
2022-07-26T01:39:23.641Z,20.92
2022-07-26T01:40:23.666Z,20.89
2022-07-26T01:41:37.217Z,20.89
2022-07-26T01:42:23.724Z,20.85
2022-07-26T01:43:23.755Z,20.84
2022-07-26T01:44:23.782Z,20.85
2022-07-26T01:45:23.806Z,20.80
2022-07-26T01:46:23.934Z,20.88
2022-07-26T01:47:23.868Z,20.82
2022-07-26T01:48:23.899Z,20.89
2022-07-26T01:49:23.923Z,20.84
2022-07-26T01:50:23.952Z,20.85
2022-07-26T01:51:23.978Z,20.91
2022-07-26T01:52:24.025Z,20.79
2022-07-26T01:53:24.038Z,20.76
2022-07-26T01:54:24.597Z,20.76
2022-07-26T01:55:24.097Z,20.69
2022-07-26T01:56:24.126Z,20.73
2022-07-26T01:57:24.156Z,20.73
2022-07-26T01:58:24.182Z,20.72
2022-07-26T01:59:24.213Z,20.73
2022-07-26T02:00:24.244Z,20.72
2022-07-26T02:01:38.046Z,20.61
2022-07-26T02:02:24.379Z,20.61
2022-07-26T02:03:24.325Z,20.57
2022-07-26T02:04:24.354Z,20.61
2022-07-26T02:05:24.388Z,20.58
2022-07-26T02:06:24.411Z,20.55
2022-07-26T02:07:24.439Z,20.58
2022-07-26T02:08:24.469Z,20.48
2022-07-26T02:09:24.500Z,20.50
2022-07-26T02:10:24.527Z,20.43
2022-07-26T02:11:24.558Z,20.47
2022-07-26T02:12:24.582Z,20.42
2022-07-26T02:13:24.610Z,20.36
2022-07-26T02:14:25.561Z,20.36
2022-07-26T02:15:24.669Z,20.38
2022-07-26T02:16:24.745Z,20.42
2022-07-26T02:17:24.729Z,20.42
2022-07-26T02:18:24.752Z,20.50
2022-07-26T02:19:24.783Z,20.48
2022-07-26T02:20:24.816Z,20.43
2022-07-26T02:21:24.842Z,20.50
2022-07-26T02:22:24.869Z,20.59
2022-07-26T02:23:24.895Z,20.51
2022-07-26T02:24:24.927Z,20.55
2022-07-26T02:25:24.953Z,20.62
2022-07-26T02:26:24.989Z,20.61
2022-07-26T02:27:25.011Z,20.55
2022-07-26T02:28:25.040Z,20.62
2022-07-26T02:29:25.075Z,20.64
2022-07-26T02:30:25.096Z,20.61
2022-07-26T02:31:25.198Z,20.61
2022-07-26T02:32:25.156Z,20.62
2022-07-26T02:33:25.187Z,20.66
2022-07-26T02:34:25.213Z,20.61
2022-07-26T02:35:25.241Z,20.52
2022-07-26T02:36:25.272Z,20.58
2022-07-26T02:37:25.299Z,20.48
2022-07-26T02:38:25.396Z,20.55
2022-07-26T02:39:25.356Z,20.54
2022-07-26T02:40:25.385Z,20.55
2022-07-26T02:41:25.422Z,20.48
2022-07-26T02:42:25.439Z,20.50
2022-07-26T02:43:25.465Z,20.50
2022-07-26T02:44:25.494Z,20.50
2022-07-26T02:45:25.535Z,20.39
2022-07-26T02:46:25.582Z,20.50
2022-07-26T02:47:25.601Z,20.41
2022-07-26T02:48:25.613Z,20.47
2022-07-26T02:49:25.659Z,20.43
2022-07-26T02:50:25.729Z,20.48
2022-07-26T02:51:25.706Z,20.41
2022-07-26T02:52:25.727Z,20.51
2022-07-26T02:53:25.752Z,20.54
2022-07-26T02:54:25.783Z,20.51
2022-07-26T02:55:25.815Z,20.59
2022-07-26T02:56:25.853Z,20.52
2022-07-26T02:57:25.869Z,20.55
2022-07-26T02:58:25.897Z,20.61
2022-07-26T02:59:25.928Z,20.59
2022-07-26T03:00:25.956Z,20.57
2022-07-26T03:01:26.045Z,20.59
2022-07-26T03:02:26.044Z,20.51
2022-07-26T03:03:26.044Z,20.55
2022-07-26T03:04:26.069Z,20.51
2022-07-26T03:05:26.099Z,20.51
2022-07-26T03:06:26.128Z,20.54
2022-07-26T03:07:26.152Z,20.52
2022-07-26T03:08:26.184Z,20.52
2022-07-26T03:09:26.222Z,20.59
2022-07-26T03:10:26.261Z,20.54
2022-07-26T03:11:26.273Z,20.61
2022-07-26T03:12:26.298Z,20.59
2022-07-26T03:13:26.334Z,20.51
2022-07-26T03:14:26.357Z,20.55
2022-07-26T03:15:26.472Z,20.54
2022-07-26T03:16:29.537Z,20.62
2022-07-26T03:17:26.440Z,20.64
2022-07-26T03:18:26.480Z,20.55
2022-07-26T03:19:26.503Z,20.57
2022-07-26T03:20:26.531Z,20.54
2022-07-26T03:21:26.574Z,20.58
2022-07-26T03:22:26.585Z,20.57
2022-07-26T03:23:26.615Z,20.48
2022-07-26T03:24:26.654Z,20.59
2022-07-26T03:25:26.672Z,20.51
2022-07-26T03:26:26.699Z,20.52
2022-07-26T03:27:26.728Z,20.55
2022-07-26T03:28:26.768Z,20.52
2022-07-26T03:29:26.784Z,20.43
2022-07-26T03:30:26.828Z,20.50
2022-07-26T03:31:27.000Z,20.47
2022-07-26T03:32:26.873Z,20.41
2022-07-26T03:33:26.898Z,20.47
2022-07-26T03:34:26.927Z,20.43
2022-07-26T03:35:26.957Z,20.33
2022-07-26T03:36:26.988Z,20.42
2022-07-26T03:37:27.016Z,20.38
2022-07-26T03:38:27.041Z,20.41
2022-07-26T03:39:27.070Z,20.47
2022-07-26T03:40:27.107Z,20.38
2022-07-26T03:41:27.124Z,20.47
2022-07-26T03:42:27.157Z,20.39
2022-07-26T03:43:27.184Z,20.50
2022-07-26T03:44:27.211Z,20.39
2022-07-26T03:45:27.244Z,20.39
2022-07-26T03:46:27.527Z,20.50
2022-07-26T03:47:27.298Z,20.50
2022-07-26T03:48:27.383Z,20.41
2022-07-26T03:49:27.467Z,20.48
2022-07-26T03:50:27.383Z,20.42
2022-07-26T03:51:27.414Z,20.38
2022-07-26T03:52:27.443Z,20.42
2022-07-26T03:53:27.473Z,20.41
2022-07-26T03:54:27.506Z,20.31
2022-07-26T03:55:27.524Z,20.32
2022-07-26T03:56:27.553Z,20.38
2022-07-26T03:57:28.304Z,20.36
2022-07-26T03:58:27.613Z,20.42
2022-07-26T03:59:27.640Z,20.42
2022-07-26T04:00:27.668Z,20.38
2022-07-26T04:01:27.747Z,20.51
2022-07-26T04:02:27.761Z,20.48
2022-07-26T04:03:27.755Z,20.43
2022-07-26T04:04:27.784Z,20.38
2022-07-26T04:05:27.813Z,20.42
2022-07-26T04:06:27.839Z,20.38
2022-07-26T04:07:27.896Z,20.39
2022-07-26T04:08:27.897Z,20.38
2022-07-26T04:09:27.926Z,20.39
2022-07-26T04:10:27.960Z,20.43
2022-07-26T04:11:28.592Z,20.50
2022-07-26T04:12:28.010Z,20.36
2022-07-26T04:13:28.060Z,20.47
2022-07-26T04:14:28.067Z,20.42
2022-07-26T04:15:28.103Z,20.50
2022-07-26T04:16:28.221Z,20.43
2022-07-26T04:17:28.157Z,20.35
2022-07-26T04:18:28.182Z,20.54
2022-07-26T04:19:28.213Z,20.51
2022-07-26T04:20:28.239Z,20.59
2022-07-26T04:21:28.267Z,20.51
2022-07-26T04:22:28.295Z,20.51
2022-07-26T04:23:28.323Z,20.61
2022-07-26T04:24:28.358Z,20.59
2022-07-26T04:25:28.383Z,20.58
2022-07-26T04:26:28.412Z,20.55
2022-07-26T04:27:28.440Z,20.59
2022-07-26T04:28:28.474Z,20.62
2022-07-26T04:29:28.495Z,20.52
2022-07-26T04:30:28.557Z,20.58
2022-07-26T04:31:28.629Z,20.64
2022-07-26T04:32:28.587Z,20.58
2022-07-26T04:33:28.620Z,20.62
2022-07-26T04:34:28.679Z,20.61
2022-07-26T04:35:28.674Z,20.73
2022-07-26T04:36:28.695Z,20.74
2022-07-26T04:37:28.728Z,20.80
2022-07-26T04:38:28.755Z,20.88
2022-07-26T04:39:28.789Z,20.91
2022-07-26T04:40:29.302Z,20.87
2022-07-26T04:41:28.844Z,20.97
2022-07-26T04:42:28.870Z,20.91
2022-07-26T04:43:28.894Z,20.94
2022-07-26T04:44:28.931Z,20.84
2022-07-26T04:45:28.957Z,20.84
2022-07-26T04:46:29.044Z,20.87
2022-07-26T04:47:29.010Z,20.87
2022-07-26T04:48:29.072Z,20.95
2022-07-26T04:49:29.071Z,20.98
2022-07-26T04:50:29.102Z,20.99
2022-07-26T04:51:29.131Z,21.09
2022-07-26T04:52:29.158Z,21.19
2022-07-26T04:53:29.197Z,21.28
2022-07-26T04:54:29.213Z,21.25
2022-07-26T04:55:29.244Z,21.47
2022-07-26T04:56:29.276Z,21.53
2022-07-26T04:57:29.306Z,21.62
2022-07-26T04:58:29.332Z,21.65
2022-07-26T04:59:29.361Z,21.77
2022-07-26T05:00:29.393Z,21.77
2022-07-26T05:01:29.472Z,21.90
2022-07-26T05:02:29.544Z,21.98
2022-07-26T05:03:29.478Z,22.17
2022-07-26T05:04:29.510Z,21.98
2022-07-26T05:05:29.537Z,22.15
2022-07-26T05:06:29.567Z,22.24
2022-07-26T05:07:29.595Z,22.20
2022-07-26T05:08:29.627Z,22.25
2022-07-26T05:09:29.659Z,22.24
2022-07-26T05:10:29.695Z,22.24
2022-07-26T05:11:29.715Z,22.28
2022-07-26T05:12:29.750Z,22.52
2022-07-26T05:13:31.051Z,22.58
2022-07-26T05:14:29.805Z,22.60
2022-07-26T05:15:35.402Z,22.43
2022-07-26T05:16:29.907Z,22.33
2022-07-26T05:17:29.900Z,22.28
2022-07-26T05:18:31.964Z,22.22
2022-07-26T05:19:29.956Z,22.22
2022-07-26T05:20:29.984Z,22.28
2022-07-26T05:21:30.017Z,22.39
2022-07-26T05:22:30.043Z,22.79
2022-07-26T05:23:30.075Z,22.92
2022-07-26T05:24:30.107Z,23.20
2022-07-26T05:25:30.136Z,23.46
2022-07-26T05:26:30.168Z,23.58
2022-07-26T05:27:30.197Z,23.72
2022-07-26T05:28:30.244Z,23.85
2022-07-26T05:29:30.258Z,24.15
2022-07-26T05:30:30.313Z,24.24
2022-07-26T05:31:30.319Z,24.31
2022-07-26T05:32:30.354Z,24.37
2022-07-26T05:33:30.383Z,24.40
2022-07-26T05:34:30.413Z,24.34
2022-07-26T05:35:30.442Z,24.21
2022-07-26T05:36:30.479Z,24.15
2022-07-26T05:37:30.509Z,24.06
2022-07-26T05:38:30.539Z,23.90
2022-07-26T05:39:30.575Z,23.73
2022-07-26T05:40:30.606Z,23.72
2022-07-26T05:41:30.635Z,23.84
2022-07-26T05:42:30.672Z,23.88
2022-07-26T05:43:41.704Z,24.13
2022-07-26T05:44:30.726Z,24.08
2022-07-26T05:45:30.796Z,24.15
2022-07-26T05:46:30.813Z,24.20
2022-07-26T05:47:30.822Z,24.16
2022-07-26T05:48:30.883Z,24.24
2022-07-26T05:49:40.127Z,24.37
2022-07-26T05:50:30.917Z,24.50
2022-07-26T05:51:30.947Z,24.60
2022-07-26T05:52:30.977Z,24.77
2022-07-26T05:53:31.011Z,25.05
2022-07-26T05:54:31.044Z,25.18
2022-07-26T05:55:31.076Z,25.43
2022-07-26T05:56:31.107Z,25.46
2022-07-26T05:57:31.140Z,25.58
2022-07-26T05:58:31.173Z,25.57
2022-07-26T05:59:31.203Z,25.39
2022-07-26T06:00:31.239Z,25.23
2022-07-26T06:01:31.275Z,24.83
2022-07-26T06:02:31.337Z,24.76
2022-07-26T06:03:31.342Z,24.61
2022-07-26T06:04:31.444Z,24.35
2022-07-26T06:05:31.402Z,24.13
2022-07-26T06:06:31.437Z,23.87
2022-07-26T06:07:31.469Z,23.79
2022-07-26T06:08:31.499Z,23.63
2022-07-26T06:09:31.538Z,23.60
2022-07-26T06:10:31.566Z,23.36
2022-07-26T06:11:31.596Z,23.38
2022-07-26T06:12:31.628Z,23.47
2022-07-26T06:13:31.657Z,23.51
2022-07-26T06:14:31.692Z,23.68
2022-07-26T06:15:31.723Z,23.91
2022-07-26T06:16:31.754Z,24.13
2022-07-26T06:17:31.835Z,24.21
2022-07-26T06:18:31.826Z,24.49
2022-07-26T06:19:31.869Z,24.65
2022-07-26T06:20:31.882Z,24.73
2022-07-26T06:21:31.915Z,25.02
2022-07-26T06:22:31.944Z,25.33
2022-07-26T06:23:34.857Z,25.38
2022-07-26T06:24:39.178Z,25.65
2022-07-26T06:26:25.506Z,26.23
2022-07-26T06:27:24.993Z,26.48
2022-07-26T06:29:32.281Z,27.03
2022-07-26T06:30:29.055Z,26.92
2022-07-26T06:32:33.557Z,26.92
2022-07-26T06:33:33.110Z,26.89
2022-07-26T06:35:37.148Z,26.77
2022-07-26T06:36:37.174Z,26.72
2022-07-26T06:38:41.679Z,26.72
2022-07-26T06:39:41.232Z,26.63
2022-07-26T06:41:46.235Z,26.13
2022-07-26T06:42:45.298Z,25.95
2022-07-26T06:44:38.435Z,25.57
2022-07-26T06:45:38.530Z,25.45
2022-07-26T06:47:42.968Z,25.18
2022-07-26T06:48:47.432Z,24.85
2022-07-26T06:50:46.548Z,24.35
2022-07-26T06:51:46.579Z,24.39
2022-07-26T06:53:51.597Z,24.27
2022-07-26T06:54:50.625Z,24.08
2022-07-26T06:56:43.579Z,23.85
2022-07-26T06:57:50.046Z,23.85
2022-07-26T06:58:43.634Z,23.87
2022-07-26T06:59:43.666Z,23.97
2022-07-26T07:00:43.764Z,23.95
2022-07-26T07:01:58.003Z,24.06
2022-07-26T07:02:43.765Z,24.25
2022-07-26T07:03:43.793Z,24.40
2022-07-26T07:04:43.933Z,24.64
2022-07-26T07:05:48.017Z,24.81
2022-07-26T07:06:43.895Z,24.83
2022-07-26T07:07:43.925Z,24.83
2022-07-26T07:08:43.958Z,24.81
2022-07-26T07:09:43.989Z,24.80
2022-07-26T07:10:44.036Z,24.88
2022-07-26T07:11:44.058Z,24.84
2022-07-26T07:12:44.092Z,24.90
2022-07-26T07:13:44.124Z,24.93
2022-07-26T07:14:44.158Z,25.00
2022-07-26T07:15:44.193Z,24.64
2022-07-26T07:16:44.268Z,24.45
2022-07-26T07:17:44.256Z,24.49
2022-07-26T07:18:44.288Z,24.47
2022-07-26T07:19:44.319Z,24.47
2022-07-26T07:20:44.356Z,24.61
2022-07-26T07:21:44.384Z,24.43
2022-07-26T07:22:44.417Z,24.25
2022-07-26T07:23:44.448Z,24.20
2022-07-26T07:24:44.480Z,24.25
2022-07-26T07:25:44.787Z,24.35
2022-07-26T07:26:44.546Z,24.46
2022-07-26T07:27:44.579Z,24.52
2022-07-26T07:28:44.617Z,24.45
2022-07-26T07:29:44.647Z,24.25
2022-07-26T07:30:44.677Z,24.25
2022-07-26T07:31:48.244Z,24.27
2022-07-26T07:32:44.743Z,24.47
2022-07-26T07:33:53.690Z,24.58
2022-07-26T07:34:44.808Z,24.84
2022-07-26T07:35:44.839Z,24.95
2022-07-26T07:36:44.873Z,24.99
2022-07-26T07:37:53.366Z,25.00
2022-07-26T07:38:44.938Z,24.96
2022-07-26T07:39:49.964Z,25.03
2022-07-26T07:40:45.005Z,25.10
2022-07-26T07:41:45.036Z,25.25
2022-07-26T07:42:45.070Z,25.32
2022-07-26T07:43:45.101Z,25.38
2022-07-26T07:44:45.132Z,25.54
2022-07-26T07:45:48.788Z,25.55
2022-07-26T07:46:45.244Z,25.46
2022-07-26T07:47:45.235Z,25.55
2022-07-26T07:48:47.661Z,25.61
2022-07-26T07:49:45.297Z,25.47
2022-07-26T07:50:45.331Z,25.38
2022-07-26T07:51:45.809Z,25.27
2022-07-26T07:52:45.397Z,25.15
2022-07-26T07:53:57.379Z,25.06
2022-07-26T07:54:45.463Z,24.99
2022-07-26T07:55:46.185Z,24.98
2022-07-26T07:56:45.528Z,24.95
2022-07-26T07:57:45.559Z,24.90
2022-07-26T07:58:45.590Z,25.06
2022-07-26T07:59:45.630Z,25.20
2022-07-26T08:00:45.742Z,25.38
2022-07-26T08:01:45.709Z,25.57
2022-07-26T08:02:45.723Z,25.75
2022-07-26T08:03:45.783Z,25.51
2022-07-26T08:04:45.859Z,25.40
2022-07-26T08:05:45.823Z,25.33
2022-07-26T08:06:47.713Z,25.38
2022-07-26T08:07:45.884Z,25.43
2022-07-26T08:08:45.919Z,25.38
2022-07-26T08:09:45.966Z,25.20
2022-07-26T08:10:51.994Z,25.28
2022-07-26T08:11:46.015Z,25.15
2022-07-26T08:12:46.045Z,25.00
2022-07-26T08:13:48.075Z,25.03
2022-07-26T08:14:46.109Z,25.05
2022-07-26T08:15:46.149Z,24.98
2022-07-26T08:16:46.254Z,25.05
2022-07-26T08:17:51.052Z,25.06
2022-07-26T08:18:57.403Z,25.06
2022-07-26T08:19:46.277Z,25.03
2022-07-26T08:20:46.307Z,25.03
2022-07-26T08:21:46.889Z,25.13
2022-07-26T08:22:46.370Z,25.25
2022-07-26T08:23:46.404Z,25.38
2022-07-26T08:24:46.441Z,25.58
2022-07-26T08:25:56.381Z,25.72
2022-07-26T08:26:46.502Z,25.76
2022-07-26T08:28:02.624Z,25.73
2022-07-26T08:28:48.133Z,25.65
2022-07-26T08:29:46.599Z,25.45
2022-07-26T08:30:46.636Z,25.47
2022-07-26T08:31:46.769Z,25.60
2022-07-26T08:32:46.697Z,25.69
2022-07-26T08:33:47.141Z,25.76
2022-07-26T08:34:46.780Z,25.90
2022-07-26T08:35:46.792Z,26.13
2022-07-26T08:37:14.166Z,26.13
2022-07-26T08:37:46.866Z,26.36
2022-07-26T08:38:47.867Z,26.62
2022-07-26T08:39:46.927Z,26.81
2022-07-26T08:40:46.964Z,26.95
2022-07-26T08:41:47.003Z,26.87
2022-07-26T08:42:52.060Z,26.69
2022-07-26T08:43:53.203Z,26.63
2022-07-26T08:44:47.094Z,26.50
2022-07-26T08:45:47.132Z,26.45
2022-07-26T08:46:47.196Z,26.40
2022-07-26T08:48:15.138Z,26.36
2022-07-26T08:48:47.401Z,26.39
2022-07-26T08:49:47.263Z,26.28
2022-07-26T08:50:47.293Z,26.10
2022-07-26T08:51:47.336Z,26.06
2022-07-26T08:52:47.362Z,25.62
2022-07-26T08:53:47.395Z,25.62
2022-07-26T08:54:47.427Z,25.69
2022-07-26T08:56:16.548Z,25.69
2022-07-26T08:56:47.493Z,25.51
2022-07-26T08:57:47.530Z,25.40
2022-07-26T08:58:47.558Z,25.05
2022-07-26T08:59:47.618Z,24.67
2022-07-26T09:00:47.679Z,24.39
2022-07-26T09:01:47.659Z,24.10
2022-07-26T09:02:47.691Z,23.76
2022-07-26T09:03:47.814Z,23.57
2022-07-26T09:04:47.819Z,23.46
2022-07-26T09:05:47.787Z,23.27
2022-07-26T09:06:47.812Z,23.16
2022-07-26T09:07:47.849Z,22.97
2022-07-26T09:08:47.879Z,22.65
2022-07-26T09:09:47.913Z,22.47
2022-07-26T09:10:47.964Z,22.40
2022-07-26T09:11:47.974Z,22.22
2022-07-26T09:12:48.006Z,22.02
2022-07-26T09:13:48.036Z,21.94
2022-07-26T09:14:48.063Z,21.79
2022-07-26T09:15:48.120Z,21.74
2022-07-26T09:16:48.146Z,21.59
2022-07-26T09:17:48.156Z,21.44
2022-07-26T09:18:48.189Z,21.28
2022-07-26T09:19:48.216Z,21.32
2022-07-26T09:20:48.247Z,21.28
2022-07-26T09:21:48.276Z,21.28
2022-07-26T09:22:48.305Z,21.29
2022-07-26T09:23:48.337Z,21.28
2022-07-26T09:24:48.360Z,21.32
2022-07-26T09:25:48.395Z,21.25
2022-07-26T09:26:48.425Z,21.31
2022-07-26T09:27:48.451Z,21.27
2022-07-26T09:28:48.485Z,21.25
2022-07-26T09:29:48.520Z,21.17
2022-07-26T09:30:48.544Z,21.14
2022-07-26T09:31:48.625Z,20.94
2022-07-26T09:32:48.600Z,20.99
2022-07-26T09:33:48.633Z,20.87
2022-07-26T09:34:53.123Z,20.91
2022-07-26T09:35:51.251Z,20.99
2022-07-26T09:36:48.718Z,21.06
2022-07-26T09:37:48.753Z,20.99
2022-07-26T09:38:48.781Z,21.03
2022-07-26T09:39:48.808Z,21.01
2022-07-26T09:40:50.864Z,20.99
2022-07-26T09:42:04.825Z,21.14
2022-07-26T09:42:48.896Z,21.12
2022-07-26T09:43:53.456Z,21.13
2022-07-26T09:44:48.952Z,20.95
2022-07-26T09:45:48.986Z,21.19
2022-07-26T09:46:49.054Z,21.17
2022-07-26T09:47:49.043Z,21.16
2022-07-26T09:49:49.168Z,21.24
2022-07-26T09:50:49.133Z,21.32
2022-07-26T09:51:49.162Z,21.28
2022-07-26T09:52:49.204Z,21.42
2022-07-26T09:53:49.223Z,21.52
2022-07-26T09:54:49.251Z,21.71
2022-07-26T09:55:49.282Z,21.68
2022-07-26T09:56:49.313Z,21.74
2022-07-26T09:57:49.341Z,21.88
2022-07-26T09:58:49.371Z,21.99
2022-07-26T09:59:49.406Z,22.02
2022-07-26T10:00:49.431Z,22.05
2022-07-26T10:01:49.539Z,22.14
2022-07-26T10:02:49.549Z,22.07
2022-07-26T10:03:49.522Z,22.22
2022-07-26T10:04:49.553Z,22.25
2022-07-26T10:05:49.585Z,22.27
2022-07-26T10:06:49.614Z,22.40
2022-07-26T10:07:49.646Z,22.61
2022-07-26T10:08:49.676Z,22.83
2022-07-26T10:09:49.709Z,22.86
2022-07-26T10:10:49.735Z,22.94
2022-07-26T10:11:49.774Z,23.20
2022-07-26T10:12:49.808Z,23.25
2022-07-26T10:13:49.830Z,23.51
2022-07-26T10:14:49.877Z,23.60
2022-07-26T10:15:49.929Z,23.66
2022-07-26T10:16:49.928Z,23.73
2022-07-26T10:17:49.961Z,23.84
2022-07-26T10:18:49.988Z,23.88
2022-07-26T10:19:50.022Z,23.98
2022-07-26T10:20:50.053Z,24.10
2022-07-26T10:21:50.085Z,24.24
2022-07-26T10:22:50.125Z,24.32
2022-07-26T10:23:50.157Z,24.39
2022-07-26T10:24:54.355Z,24.43
2022-07-26T10:25:50.216Z,24.53
2022-07-26T10:26:50.247Z,24.37
2022-07-26T10:27:50.284Z,24.42
2022-07-26T10:28:50.686Z,24.35
2022-07-26T10:29:50.347Z,24.42
2022-07-26T10:30:50.452Z,24.16
2022-07-26T10:31:50.508Z,24.15
2022-07-26T10:32:50.443Z,24.02
2022-07-26T10:33:50.477Z,23.72
2022-07-26T10:34:50.510Z,23.60
2022-07-26T10:35:50.542Z,23.40
2022-07-26T10:36:55.814Z,23.12
2022-07-26T10:37:50.607Z,22.85
2022-07-26T10:38:50.640Z,22.35
2022-07-26T10:39:50.668Z,22.00
2022-07-26T10:40:50.737Z,21.79
2022-07-26T10:41:50.731Z,21.44
2022-07-26T10:42:50.785Z,21.27
2022-07-26T10:43:50.797Z,20.89
2022-07-26T10:44:50.826Z,20.70
2022-07-26T10:45:50.856Z,20.42
2022-07-26T10:46:50.917Z,20.36
2022-07-26T10:47:50.917Z,20.20
2022-07-26T10:48:50.993Z,20.16
2022-07-26T10:49:50.974Z,20.13
2022-07-26T10:50:51.008Z,20.10
2022-07-26T10:51:51.032Z,20.03
2022-07-26T10:52:51.063Z,19.98
2022-07-26T10:53:51.093Z,20.08
2022-07-26T10:54:51.123Z,19.96
2022-07-26T10:55:51.153Z,19.96
2022-07-26T10:56:51.181Z,20.02
2022-07-26T10:57:51.211Z,20.16
2022-07-26T10:58:51.241Z,20.21
2022-07-26T10:59:56.223Z,20.28
2022-07-26T11:00:51.296Z,20.41
2022-07-26T11:01:51.385Z,20.55
2022-07-26T11:02:51.399Z,20.73
2022-07-26T11:03:51.386Z,20.76
2022-07-26T11:04:51.414Z,20.77
2022-07-26T11:05:51.469Z,20.87
2022-07-26T11:06:51.471Z,20.95
2022-07-26T11:07:51.504Z,20.99
2022-07-26T11:08:51.536Z,20.97
2022-07-26T11:09:51.566Z,21.01
2022-07-26T11:10:51.638Z,21.19
2022-07-26T11:11:51.621Z,21.29
2022-07-26T11:12:51.655Z,21.43
2022-07-26T11:13:51.685Z,21.49
2022-07-26T11:14:51.713Z,21.49
2022-07-26T11:15:51.775Z,21.50
2022-07-26T11:16:51.780Z,21.59
2022-07-26T11:17:51.805Z,21.77
2022-07-26T11:18:51.835Z,21.77
2022-07-26T11:19:51.864Z,21.86
2022-07-26T11:20:51.903Z,22.00
2022-07-26T11:21:51.925Z,21.86
2022-07-26T11:22:51.956Z,21.98
2022-07-26T11:23:52.005Z,22.10
2022-07-26T11:24:52.018Z,22.25
2022-07-26T11:25:52.049Z,22.33
2022-07-26T11:26:52.080Z,22.31
2022-07-26T11:27:52.126Z,22.45
2022-07-26T11:28:52.140Z,22.52
2022-07-26T11:29:52.171Z,22.55
2022-07-26T11:30:52.260Z,22.75
2022-07-26T11:31:59.673Z,22.83
2022-07-26T11:32:52.263Z,22.88
2022-07-26T11:33:52.295Z,22.97
2022-07-26T11:34:52.330Z,23.05
2022-07-26T11:35:52.403Z,23.05
2022-07-26T11:36:52.389Z,23.05
2022-07-26T11:37:52.422Z,22.86
2022-07-26T11:38:52.452Z,22.92
2022-07-26T11:39:52.482Z,22.94
2022-07-26T11:40:52.523Z,23.00
2022-07-26T11:41:52.549Z,23.01
2022-07-26T11:42:52.575Z,23.00
2022-07-26T11:43:52.609Z,22.82
2022-07-26T11:44:52.638Z,22.47
2022-07-26T11:45:52.756Z,22.28
2022-07-26T11:46:52.758Z,22.25
2022-07-26T11:47:52.731Z,21.96
2022-07-26T11:48:52.832Z,21.80
2022-07-26T11:50:12.569Z,21.77
2022-07-26T11:50:52.817Z,21.72
2022-07-26T11:51:52.856Z,21.80
2022-07-26T11:52:52.884Z,21.72
2022-07-26T11:53:52.914Z,21.79
2022-07-26T11:54:52.945Z,21.69
2022-07-26T11:55:52.977Z,21.65
2022-07-26T11:56:53.003Z,21.64
2022-07-26T11:57:53.037Z,21.58
2022-07-26T11:58:53.064Z,21.61
2022-07-26T11:59:53.095Z,21.69
2022-07-26T12:00:53.124Z,21.58
2022-07-26T12:01:53.155Z,21.65
2022-07-26T12:02:56.034Z,21.64
2022-07-26T12:03:53.258Z,21.65
2022-07-26T12:04:53.415Z,21.64
2022-07-26T12:05:53.326Z,21.67
2022-07-26T12:06:53.308Z,21.67
2022-07-26T12:07:53.339Z,21.72
2022-07-26T12:08:56.254Z,21.80
2022-07-26T12:09:53.407Z,21.67
2022-07-26T12:10:53.430Z,21.72
2022-07-26T12:11:53.461Z,21.72
2022-07-26T12:12:53.491Z,21.80
2022-07-26T12:13:55.990Z,21.86
2022-07-26T12:14:53.550Z,21.92
2022-07-26T12:15:53.842Z,21.99
2022-07-26T12:16:53.614Z,22.00
2022-07-26T12:17:53.646Z,22.09
2022-07-26T12:18:53.673Z,22.09
2022-07-26T12:19:53.703Z,22.12
2022-07-26T12:20:55.915Z,22.22
2022-07-26T12:21:53.763Z,22.21
2022-07-26T12:22:53.795Z,22.35
2022-07-26T12:23:53.835Z,22.27
2022-07-26T12:24:53.858Z,22.27
2022-07-26T12:25:53.887Z,22.24
2022-07-26T12:26:53.919Z,22.36
2022-07-26T12:27:53.948Z,22.37
2022-07-26T12:28:53.982Z,22.45
2022-07-26T12:29:54.016Z,22.47
2022-07-26T12:30:54.089Z,22.60
2022-07-26T12:31:54.105Z,22.65
2022-07-26T12:32:54.102Z,22.77
2022-07-26T12:33:54.134Z,22.80
2022-07-26T12:34:54.172Z,22.90
2022-07-26T12:35:54.198Z,22.86
2022-07-26T12:36:54.230Z,22.95
2022-07-26T12:37:54.259Z,22.80
2022-07-26T12:38:54.288Z,22.90
2022-07-26T12:39:54.341Z,22.72
2022-07-26T12:40:54.545Z,22.65
2022-07-26T12:41:54.384Z,22.65
2022-07-26T12:43:00.277Z,22.45
2022-07-26T12:43:54.445Z,22.35
2022-07-26T12:44:54.479Z,22.28
2022-07-26T12:45:54.596Z,22.18
2022-07-26T12:46:54.536Z,22.17
2022-07-26T12:47:54.573Z,22.02
2022-07-26T12:48:59.952Z,21.98
2022-07-26T12:49:54.630Z,21.91
2022-07-26T12:50:54.665Z,21.83
2022-07-26T12:51:54.694Z,21.79
2022-07-26T12:52:54.727Z,21.80
2022-07-26T12:53:54.756Z,21.77
2022-07-26T12:54:54.783Z,21.86
2022-07-26T12:55:54.817Z,21.92
2022-07-26T12:58:27.056Z,22.02
2022-07-26T12:59:26.552Z,21.99
2022-07-26T13:01:30.669Z,21.84
2022-07-26T13:02:30.607Z,21.92
2022-07-26T13:04:35.129Z,22.03
2022-07-26T13:05:34.638Z,22.00
2022-07-26T13:07:38.668Z,22.25
2022-07-26T13:08:38.693Z,22.30
2022-07-26T13:10:43.191Z,22.24